Time;durP1;ratioP1;P1;durP2;ratioP2;P2;SDS_P1;SDS_P2;PMS_P1;PMS_P2;Temp;Humidity;BMP_temperature;BMP_pressure;BME280_temperature;BME280_humidity;BME280_pressure;Samples;Min_cycle;Max_cycle;Signal;HPM_P1;HPM_P2
2022/06/14 00:03:11;;;;;;;29.98;7.30;;;;;;;;;;5027830;28;20171;-70
2022/06/14 00:05:37;;;;;;;31.20;7.43;;;;;;;;;;5028772;28;20045;-70
2022/06/14 00:08:03;;;;;;;26.35;7.55;;;;;;;;;;5029575;28;20030;-71
2022/06/14 00:10:29;;;;;;;23.15;7.35;;;;;;;;;;5043773;28;20594;-71
2022/06/14 00:12:55;;;;;;;21.50;7.15;;;;;;;;;;5035571;28;20478;-70
2022/06/14 00:15:21;;;;;;;28.25;7.88;;;;;;;;;;5031174;28;20502;-71
2022/06/14 00:17:47;;;;;;;19.50;7.43;;;;;;;;;;5028991;28;20468;-70
2022/06/14 00:20:13;;;;;;;28.02;7.35;;;;;;;;;;5029789;28;20030;-70
2022/06/14 00:22:40;;;;;;;24.27;6.40;;;;;;;;;;5027110;28;20037;-70
2022/06/14 00:25:07;;;;;;;20.30;7.05;;;;;;;;;;5029499;28;20087;-70
2022/06/14 00:27:33;;;;;;;17.10;7.03;;;;;;;;;;5029847;28;20474;-70
2022/06/14 00:29:59;;;;;;;28.25;8.07;;;;;;;;;;5031045;28;20148;-72
2022/06/14 00:32:25;;;;;;;18.02;7.35;;;;;;;;;;5024764;28;20613;-72
2022/06/14 00:34:51;;;;;;;25.85;6.93;;;;;;;;;;5024320;28;20112;-71
2022/06/14 00:37:18;;;;;;;22.08;7.45;;;;;;;;;;5028106;28;20112;-70
2022/06/14 00:39:45;;;;;;;23.98;7.88;;;;;;;;;;5032779;28;20584;-71
2022/06/14 00:42:19;;;;;;;18.48;7.22;;;;;;;;;;5037193;28;20152;-70
2022/06/14 00:45:01;;;;;;;22.95;7.50;;;;;;;;;;5030951;28;20056;-71
2022/06/14 00:47:27;;;;;;;18.77;7.47;;;;;;;;;;5027552;28;20326;-71
2022/06/14 00:49:57;;;;;;;34.10;9.05;;;;;;;;;;5030303;28;20029;-70
2022/06/14 00:52:34;;;;;;;20.58;7.63;;;;;;;;;;5030693;28;20072;-70
2022/06/14 00:55:05;;;;;;;21.30;7.28;;;;;;;;;;5023086;28;20050;-70
2022/06/14 00:57:39;;;;;;;20.35;7.13;;;;;;;;;;5023665;28;20106;-70
2022/06/14 01:00:08;;;;;;;25.10;6.90;;;;;;;;;;5030265;28;20061;-70
2022/06/14 01:02:35;;;;;;;31.75;8.13;;;;;;;;;;5026644;28;20043;-70
2022/06/14 01:05:04;;;;;;;25.35;8.18;;;;;;;;;;5028836;28;20032;-70
2022/06/14 01:07:32;;;;;;;26.58;7.85;;;;;;;;;;5027006;28;20103;-70
2022/06/14 01:10:05;;;;;;;18.45;7.05;;;;;;;;;;5028942;28;20107;-70
2022/06/14 01:12:34;;;;;;;29.50;8.32;;;;;;;;;;5024952;28;20034;-70
2022/06/14 01:15:18;;;;;;;24.48;7.93;;;;;;;;;;5029953;28;20041;-70
2022/06/14 01:17:45;;;;;;;23.25;8.15;;;;;;;;;;5028433;28;20037;-71
2022/06/14 01:20:14;;;;;;;23.80;8.48;;;;;;;;;;5033492;28;20320;-70
2022/06/14 01:22:40;;;;;;;21.75;7.50;;;;;;;;;;5025457;28;20112;-71
2022/06/14 01:25:06;;;;;;;32.75;9.90;;;;;;;;;;5030325;28;20108;-71
2022/06/14 01:27:35;;;;;;;38.95;8.68;;;;;;;;;;5026344;28;20029;-70
2022/06/14 01:30:03;;;;;;;22.42;8.35;;;;;;;;;;5028485;28;20140;-71
2022/06/14 01:32:31;;;;;;;24.85;8.73;;;;;;;;;;5026460;28;20082;-72
2022/06/14 01:34:58;;;;;;;20.48;7.82;;;;;;;;;;5028994;28;20032;-71
2022/06/14 01:37:25;;;;;;;20.17;7.22;;;;;;;;;;5027731;28;20036;-70
2022/06/14 01:39:51;;;;;;;22.85;8.88;;;;;;;;;;5030421;28;20418;-69
2022/06/14 01:42:32;;;;;;;20.40;8.75;;;;;;;;;;5040755;28;20512;-69
2022/06/14 01:45:03;;;;;;;22.95;9.02;;;;;;;;;;5027747;28;20036;-70
2022/06/14 01:47:35;;;;;;;27.10;8.43;;;;;;;;;;5034750;28;20083;-69
2022/06/14 01:53:04;;;;;;;26.05;9.27;;;;;;;;;;4986894;28;20034;-70
2022/06/14 01:55:42;;;;;;;32.03;9.90;;;;;;;;;;4989866;28;20034;-71
2022/06/14 01:58:20;;;;;;;23.85;8.20;;;;;;;;;;4999330;28;20491;-70
2022/06/14 02:00:52;;;;;;;34.67;9.38;;;;;;;;;;4993391;28;20030;-71
2022/06/14 02:06:28;;;;;;;32.60;9.55;;;;;;;;;;4986379;28;20136;-70
2022/06/14 02:09:08;;;;;;;19.80;8.32;;;;;;;;;;4976645;28;20109;-71
2022/06/14 02:11:35;;;;;;;16.60;6.72;;;;;;;;;;4988122;28;20045;-70
2022/06/14 02:14:09;;;;;;;19.35;7.00;;;;;;;;;;4993194;28;20125;-70
2022/06/14 02:16:43;;;;;;;22.95;9.75;;;;;;;;;;5002747;28;20109;-70
2022/06/14 02:19:13;;;;;;;41.00;11.80;;;;;;;;;;4990049;28;20026;-72
2022/06/14 02:21:43;;;;;;;25.75;9.85;;;;;;;;;;4987795;28;20035;-71
2022/06/14 02:24:09;;;;;;;32.25;9.73;;;;;;;;;;4988529;28;20038;-70
2022/06/14 02:26:38;;;;;;;18.85;9.20;;;;;;;;;;4984689;28;20488;-70
2022/06/14 02:29:04;;;;;;;22.40;8.73;;;;;;;;;;4989722;28;20030;-70
2022/06/14 02:31:34;;;;;;;25.80;8.65;;;;;;;;;;4975267;28;20151;-70
2022/06/14 02:34:29;;;;;;;25.67;10.43;;;;;;;;;;4989567;28;20042;-71
2022/06/14 02:37:15;;;;;;;27.23;9.40;;;;;;;;;;4988048;28;20045;-70
2022/06/14 02:39:48;;;;;;;25.55;9.25;;;;;;;;;;4987769;28;20062;-71
2022/06/14 02:42:32;;;;;;;23.25;8.77;;;;;;;;;;4988508;28;20027;-70
2022/06/14 02:45:02;;;;;;;20.40;8.30;;;;;;;;;;4999563;28;20652;-71
2022/06/14 02:47:28;;;;;;;23.15;8.52;;;;;;;;;;4993947;28;20030;-71
2022/06/14 02:49:57;;;;;;;20.00;7.93;;;;;;;;;;4985770;28;20174;-70
2022/06/14 02:52:39;;;;;;;28.90;9.90;;;;;;;;;;5016502;28;20453;-71
2022/06/14 02:55:12;;;;;;;26.08;9.05;;;;;;;;;;5044326;28;20112;-70
2022/06/14 02:57:47;;;;;;;34.35;10.48;;;;;;;;;;5032256;28;20048;-71
2022/06/14 03:00:16;;;;;;;23.95;9.05;;;;;;;;;;5031001;28;20029;-69
2022/06/14 03:02:48;;;;;;;26.42;9.60;;;;;;;;;;5032481;28;20547;-70
2022/06/14 03:05:22;;;;;;;25.92;10.35;;;;;;;;;;5026429;28;20495;-70
2022/06/14 03:07:51;;;;;;;23.08;9.07;;;;;;;;;;5020445;28;20565;-72
2022/06/14 03:10:17;;;;;;;25.80;9.32;;;;;;;;;;5013588;28;20083;-70
2022/06/14 03:13:07;;;;;;;26.13;9.77;;;;;;;;;;5026185;28;20042;-70
2022/06/14 03:15:45;;;;;;;20.50;8.07;;;;;;;;;;5028632;28;20640;-71
2022/06/14 03:18:19;;;;;;;20.13;8.23;;;;;;;;;;5027518;28;20029;-70
2022/06/14 03:21:04;;;;;;;13.20;6.47;;;;;;;;;;5031397;28;20029;-71
2022/06/14 03:23:41;;;;;;;20.02;7.55;;;;;;;;;;5026585;28;20056;-71
2022/06/14 03:26:26;;;;;;;15.70;6.93;;;;;;;;;;5027757;28;20037;-71
2022/06/14 03:28:57;;;;;;;18.55;6.43;;;;;;;;;;5026994;28;20081;-71
2022/06/14 03:31:35;;;;;;;10.50;6.03;;;;;;;;;;5024777;28;20026;-70
2022/06/14 03:34:05;;;;;;;11.95;6.28;;;;;;;;;;5043189;28;20032;-70
2022/06/14 03:36:32;;;;;;;11.07;6.00;;;;;;;;;;5025426;28;20022;-71
2022/06/14 03:39:27;;;;;;;10.98;5.60;;;;;;;;;;5027501;28;20036;-70
2022/06/14 03:41:54;;;;;;;13.52;6.07;;;;;;;;;;4993227;28;20065;-70
2022/06/14 03:44:22;;;;;;;10.02;5.80;;;;;;;;;;5026748;28;20041;-70
2022/06/14 03:47:07;;;;;;;13.98;5.70;;;;;;;;;;5026168;28;20446;-70
2022/06/14 03:49:32;;;;;;;12.85;5.40;;;;;;;;;;5043085;28;20029;-70
2022/06/14 03:52:21;;;;;;;10.00;5.20;;;;;;;;;;5041920;28;20049;-67
2022/06/14 03:54:50;;;;;;;7.60;5.18;;;;;;;;;;5046248;28;20036;-68
2022/06/14 03:57:16;;;;;;;10.65;5.57;;;;;;;;;;5030509;28;20558;-68
2022/06/14 04:00:01;;;;;;;8.02;5.10;;;;;;;;;;5027370;28;20108;-68
2022/06/14 04:02:55;;;;;;;13.35;6.10;;;;;;;;;;5026036;28;20120;-73
2022/06/14 04:05:23;;;;;;;16.08;6.40;;;;;;;;;;5025702;28;20042;-67
2022/06/14 04:08:01;;;;;;;16.75;7.30;;;;;;;;;;5025852;28;20033;-67
2022/06/14 04:10:33;;;;;;;16.60;7.88;;;;;;;;;;5028155;28;20403;-67
2022/06/14 04:13:09;;;;;;;21.95;8.77;;;;;;;;;;5023640;28;20030;-67
2022/06/14 04:15:39;;;;;;;15.85;7.70;;;;;;;;;;5041635;28;20037;-67
2022/06/14 04:21:00;;;;;;;23.30;9.50;;;;;;;;;;5028023;28;20410;-69
2022/06/14 04:23:39;;;;;;;15.68;6.72;;;;;;;;;;5029050;28;20051;-68
2022/06/14 04:26:31;;;;;;;16.25;7.80;;;;;;;;;;5035304;28;20029;-67
2022/06/14 04:29:21;;;;;;;16.10;7.03;;;;;;;;;;5008516;28;20033;-67
2022/06/14 04:31:55;;;;;;;10.50;5.72;;;;;;;;;;5026950;28;20029;-69
2022/06/14 04:34:26;;;;;;;16.33;6.40;;;;;;;;;;5036339;28;20029;-69
2022/06/14 04:36:59;;;;;;;12.40;5.70;;;;;;;;;;5027033;28;20096;-68
2022/06/14 04:39:33;;;;;;;9.48;5.25;;;;;;;;;;5037712;28;20433;-68
2022/06/14 04:42:05;;;;;;;15.23;5.78;;;;;;;;;;5039203;28;20033;-68
2022/06/14 04:44:31;;;;;;;13.68;5.15;;;;;;;;;;5029435;28;20053;-68
2022/06/14 04:47:00;;;;;;;17.10;4.82;;;;;;;;;;5026974;28;20469;-67
2022/06/14 04:49:35;;;;;;;9.98;4.78;;;;;;;;;;5041946;28;20033;-68
2022/06/14 04:52:13;;;;;;;16.33;4.68;;;;;;;;;;5039477;28;20041;-67
2022/06/14 04:54:52;;;;;;;12.45;4.22;;;;;;;;;;5044530;28;20032;-69
2022/06/14 04:57:25;;;;;;;14.70;4.07;;;;;;;;;;5035638;28;20029;-67
2022/06/14 04:59:53;;;;;;;16.67;3.95;;;;;;;;;;5029446;28;20044;-68
2022/06/14 05:02:24;;;;;;;16.40;4.22;;;;;;;;;;5029532;28;20057;-69
2022/06/14 05:04:55;;;;;;;11.52;4.40;;;;;;;;;;5030289;28;20041;-68
2022/06/14 05:07:24;;;;;;;11.95;4.05;;;;;;;;;;5026910;28;20021;-67
2022/06/14 05:10:07;;;;;;;12.10;5.07;;;;;;;;;;5027213;28;20395;-76
2022/06/14 05:12:33;;;;;;;10.13;4.25;;;;;;;;;;5040624;28;20041;-76
2022/06/14 05:15:02;;;;;;;12.88;4.45;;;;;;;;;;5022939;28;20052;-76
2022/06/14 05:17:30;;;;;;;11.18;3.83;;;;;;;;;;5022377;28;20386;-76
2022/06/14 05:20:01;;;;;;;14.38;4.30;;;;;;;;;;5025013;28;20038;-73
2022/06/14 05:22:48;;;;;;;11.65;3.97;;;;;;;;;;5022366;28;20076;-72
2022/06/14 05:25:14;;;;;;;11.52;4.00;;;;;;;;;;5038964;28;20054;-72
2022/06/14 05:27:40;;;;;;;14.25;3.70;;;;;;;;;;5021978;28;20033;-73
2022/06/14 05:30:19;;;;;;;12.43;3.90;;;;;;;;;;5025828;28;20025;-72
2022/06/14 05:32:52;;;;;;;10.85;3.53;;;;;;;;;;5023885;28;20048;-73
2022/06/14 05:35:37;;;;;;;9.10;3.50;;;;;;;;;;5027851;28;20026;-73
2022/06/14 05:38:06;;;;;;;8.77;3.50;;;;;;;;;;5025063;28;20498;-71
2022/06/14 05:40:32;;;;;;;16.15;4.35;;;;;;;;;;5028032;28;20025;-74
2022/06/14 05:43:01;;;;;;;9.82;3.05;;;;;;;;;;5024703;28;20072;-74
2022/06/14 05:45:29;;;;;;;14.25;3.92;;;;;;;;;;5031630;28;20034;-74
2022/06/14 05:47:59;;;;;;;9.75;3.67;;;;;;;;;;5031302;28;20114;-74
2022/06/14 05:50:37;;;;;;;8.00;3.50;;;;;;;;;;5022222;28;20500;-74
2022/06/14 05:53:03;;;;;;;9.95;3.60;;;;;;;;;;5026516;28;20496;-73
2022/06/14 05:55:32;;;;;;;10.63;3.42;;;;;;;;;;5030436;28;20037;-73
2022/06/14 05:58:17;;;;;;;11.20;3.60;;;;;;;;;;5026049;28;20034;-73
2022/06/14 06:00:46;;;;;;;14.30;3.08;;;;;;;;;;5016882;28;20124;-73
2022/06/14 06:03:33;;;;;;;9.73;3.13;;;;;;;;;;5027904;28;20030;-72
2022/06/14 06:06:11;;;;;;;8.52;2.88;;;;;;;;;;5028775;28;20170;-72
2022/06/14 06:08:43;;;;;;;7.93;2.55;;;;;;;;;;5018186;28;20312;-73
2022/06/14 06:11:26;;;;;;;7.18;2.55;;;;;;;;;;5024795;28;20038;-74
2022/06/14 06:13:55;;;;;;;8.50;2.60;;;;;;;;;;5022697;28;20048;-74
2022/06/14 06:16:32;;;;;;;10.93;3.27;;;;;;;;;;5026322;28;20033;-73
2022/06/14 06:19:03;;;;;;;7.65;2.38;;;;;;;;;;5034692;28;20033;-73
2022/06/14 06:21:34;;;;;;;7.57;2.22;;;;;;;;;;5024530;28;20029;-73
2022/06/14 06:24:00;;;;;;;;;;;;;;;;;;5020804;28;20017;-73
2022/06/14 06:26:32;;;;;;;6.53;1.90;;;;;;;;;;5029699;28;19996;-74
2022/06/14 06:29:18;;;;;;;10.68;2.92;;;;;;;;;;5029761;28;20025;-74
2022/06/14 06:31:45;;;;;;;9.25;2.40;;;;;;;;;;5028464;28;20028;-73
2022/06/14 06:34:13;;;;;;;9.25;2.60;;;;;;;;;;5028925;28;20032;-73
2022/06/14 06:36:39;;;;;;;8.32;2.38;;;;;;;;;;5028371;28;20029;-73
2022/06/14 06:39:08;;;;;;;5.25;1.35;;;;;;;;;;5027660;28;20040;-72
2022/06/14 06:41:50;;;;;;;5.90;1.70;;;;;;;;;;5029180;28;20022;-72
2022/06/14 06:44:28;;;;;;;9.75;1.90;;;;;;;;;;5025458;28;20022;-73
2022/06/14 06:47:15;;;;;;;6.50;1.63;;;;;;;;;;5027091;28;20109;-73
2022/06/14 06:49:55;;;;;;;6.18;1.67;;;;;;;;;;5028809;28;20021;-73
2022/06/14 06:52:25;;;;;;;5.57;1.67;;;;;;;;;;5028823;28;20045;-73
2022/06/14 06:55:00;;;;;;;10.13;1.90;;;;;;;;;;5029063;28;20391;-73
2022/06/14 06:57:28;;;;;;;6.00;1.80;;;;;;;;;;5027151;28;20049;-74
2022/06/14 06:59:56;;;;;;;5.70;1.70;;;;;;;;;;5028945;28;20053;-75
2022/06/14 07:02:28;;;;;;;3.55;1.60;;;;;;;;;;5026376;28;20034;-73
2022/06/14 07:05:05;;;;;;;6.88;2.20;;;;;;;;;;5027207;28;20033;-73
2022/06/14 07:07:31;;;;;;;7.57;2.00;;;;;;;;;;5026807;28;20021;-74
2022/06/14 07:10:16;;;;;;;6.10;2.20;;;;;;;;;;5027045;28;20030;-73
2022/06/14 07:12:44;;;;;;;13.13;2.20;;;;;;;;;;5011456;28;20037;-73
2022/06/14 07:15:23;;;;;;;6.32;2.22;;;;;;;;;;5009270;28;20391;-73
2022/06/14 07:17:49;;;;;;;9.50;1.90;;;;;;;;;;5023180;28;20037;-76
2022/06/14 07:20:26;;;;;;;8.63;2.17;;;;;;;;;;5026911;28;20061;-75
2022/06/14 07:22:55;;;;;;;8.65;2.20;;;;;;;;;;5029468;28;20034;-74
2022/06/14 07:25:21;;;;;;;8.57;2.10;;;;;;;;;;5028279;28;20037;-74
2022/06/14 07:27:50;;;;;;;6.20;1.63;;;;;;;;;;5025938;28;20037;-72
2022/06/14 07:30:21;;;;;;;5.88;1.70;;;;;;;;;;5028474;28;20025;-73
2022/06/14 07:32:50;;;;;;;6.80;1.92;;;;;;;;;;5027418;28;20036;-75
2022/06/14 07:35:17;;;;;;;5.30;1.85;;;;;;;;;;5029545;28;20049;-74
2022/06/14 07:37:46;;;;;;;10.85;1.80;;;;;;;;;;5023014;28;20120;-73
2022/06/14 07:40:32;;;;;;;7.55;2.08;;;;;;;;;;5008300;28;20503;-72
2022/06/14 07:43:01;;;;;;;8.05;1.90;;;;;;;;;;5024713;28;20483;-73
2022/06/14 07:45:34;;;;;;;4.90;1.83;;;;;;;;;;5028969;28;20021;-73
2022/06/14 07:48:03;;;;;;;6.05;2.10;;;;;;;;;;5027690;28;21082;-74
2022/06/14 07:50:29;;;;;;;6.90;2.17;;;;;;;;;;5025687;28;20064;-72
2022/06/14 07:53:19;;;;;;;4.70;1.83;;;;;;;;;;5027936;28;20495;-73
2022/06/14 07:55:48;;;;;;;4.00;1.33;;;;;;;;;;5029716;28;20025;-73
2022/06/14 07:58:18;;;;;;;7.53;1.63;;;;;;;;;;5031379;28;20033;-76
2022/06/14 08:01:08;;;;;;;5.82;1.60;;;;;;;;;;5028372;28;20151;-77
2022/06/14 08:03:37;;;;;;;4.70;1.40;;;;;;;;;;5026636;28;20116;-76
2022/06/14 08:06:05;;;;;;;4.30;1.45;;;;;;;;;;5032591;28;20494;-74
2022/06/14 08:08:34;;;;;;;5.07;1.60;;;;;;;;;;5030921;28;20025;-73
2022/06/14 08:11:21;;;;;;;11.02;1.85;;;;;;;;;;5031282;28;20069;-73
2022/06/14 08:13:50;;;;;;;5.75;1.60;;;;;;;;;;5030313;28;20086;-74
2022/06/14 08:16:18;;;;;;;4.40;1.45;;;;;;;;;;5031892;28;20491;-74
2022/06/14 08:18:47;;;;;;;6.40;1.35;;;;;;;;;;5030693;28;20525;-77
2022/06/14 08:21:16;;;;;;;4.38;1.40;;;;;;;;;;5029855;28;20334;-74
2022/06/14 08:24:01;;;;;;;4.75;1.50;;;;;;;;;;5031043;28;20029;-76
2022/06/14 08:26:30;;;;;;;4.15;1.55;;;;;;;;;;5030450;28;20103;-75
2022/06/14 08:28:59;;;;;;;6.60;1.43;;;;;;;;;;5031622;28;20031;-75
2022/06/14 08:31:36;;;;;;;6.47;1.40;;;;;;;;;;5026742;28;20378;-75
2022/06/14 08:34:06;;;;;;;6.15;1.42;;;;;;;;;;5011611;28;20022;-76
2022/06/14 08:36:40;;;;;;;9.45;1.70;;;;;;;;;;5028364;28;20038;-74
2022/06/14 08:39:09;;;;;;;7.80;1.65;;;;;;;;;;5031498;28;20030;-74
2022/06/14 08:41:46;;;;;;;5.22;1.83;;;;;;;;;;5031670;28;20029;-74
2022/06/14 08:44:17;;;;;;;5.35;1.83;;;;;;;;;;5032152;28;20026;-74
2022/06/14 08:46:43;;;;;;;6.70;2.10;;;;;;;;;;5029063;28;20469;-74
2022/06/14 08:49:15;;;;;;;9.45;1.88;;;;;;;;;;5031653;28;20021;-75
2022/06/14 08:51:53;;;;;;;3.38;1.30;;;;;;;;;;5030351;28;20045;-74
2022/06/14 08:54:22;;;;;;;5.63;1.77;;;;;;;;;;5032110;28;20053;-73
2022/06/14 08:56:48;;;;;;;5.55;1.52;;;;;;;;;;5030500;28;20033;-75
2022/06/14 08:59:30;;;;;;;14.57;2.67;;;;;;;;;;5030047;28;20540;-75
2022/06/14 09:02:02;;;;;;;8.43;1.75;;;;;;;;;;5031443;28;20123;-75
2022/06/14 09:04:28;;;;;;;12.02;2.00;;;;;;;;;;5031746;28;20041;-75
2022/06/14 09:07:13;;;;;;;4.65;1.75;;;;;;;;;;5030621;28;20516;-75
2022/06/14 09:09:57;;;;;;;4.57;2.08;;;;;;;;;;5030552;28;20026;-74
2022/06/14 09:12:29;;;;;;;7.00;1.75;;;;;;;;;;5019551;28;20076;-75
2022/06/14 09:15:16;;;;;;;6.03;1.70;;;;;;;;;;5030637;28;20026;-76
2022/06/14 09:17:51;;;;;;;3.45;1.52;;;;;;;;;;5031241;28;20040;-75
2022/06/14 09:20:37;;;;;;;6.75;1.77;;;;;;;;;;5029786;28;20029;-76
2022/06/14 09:23:17;;;;;;;10.25;2.10;;;;;;;;;;5029751;28;20514;-73
2022/06/14 09:25:59;;;;;;;4.88;1.90;;;;;;;;;;5030686;28;20124;-73
2022/06/14 09:28:43;;;;;;;6.35;1.75;;;;;;;;;;5029220;28;20026;-73
2022/06/14 09:31:16;;;;;;;8.00;1.90;;;;;;;;;;5030468;28;20455;-74
2022/06/14 09:34:01;;;;;;;4.82;1.70;;;;;;;;;;5030081;28;20076;-74
2022/06/14 09:36:36;;;;;;;8.75;1.50;;;;;;;;;;5029550;28;20029;-74
2022/06/14 09:39:21;;;;;;;6.05;1.67;;;;;;;;;;5029270;28;20025;-75
2022/06/14 09:42:12;;;;;;;5.90;1.60;;;;;;;;;;5030417;28;20073;-73
2022/06/14 09:44:57;;;;;;;4.22;1.48;;;;;;;;;;5014230;28;20041;-74
2022/06/14 09:47:41;;;;;;;5.47;1.85;;;;;;;;;;5011079;28;20396;-73
2022/06/14 09:50:26;;;;;;;7.13;1.75;;;;;;;;;;5026127;28;20026;-77
2022/06/14 09:53:01;;;;;;;3.78;1.63;;;;;;;;;;5010858;28;20153;-76
2022/06/14 09:55:34;;;;;;;6.07;1.50;;;;;;;;;;5018465;28;20056;-73
2022/06/14 09:58:29;;;;;;;4.47;1.15;;;;;;;;;;5028560;28;20053;-73
2022/06/14 10:00:58;;;;;;;4.90;1.63;;;;;;;;;;5003522;28;20041;-74
2022/06/14 10:03:43;;;;;;;4.00;1.80;;;;;;;;;;5030478;28;20026;-73
2022/06/14 10:06:09;;;;;;;5.18;1.80;;;;;;;;;;5030389;28;20080;-77
2022/06/14 10:08:42;;;;;;;6.15;1.70;;;;;;;;;;5029799;28;20025;-72
2022/06/14 10:11:26;;;;;;;4.95;1.75;;;;;;;;;;5026740;28;20030;-73
2022/06/14 10:13:55;;;;;;;6.43;1.92;;;;;;;;;;5010743;28;20040;-72
2022/06/14 10:16:21;;;;;;;5.85;1.95;;;;;;;;;;5010886;28;20037;-74
2022/06/14 10:19:08;;;;;;;4.88;1.80;;;;;;;;;;5014421;28;20338;-75
2022/06/14 10:21:36;;;;;;;7.32;2.15;;;;;;;;;;5029859;28;20132;-75
2022/06/14 10:24:08;;;;;;;7.20;2.00;;;;;;;;;;5030543;28;20052;-75
2022/06/14 10:29:37;;;;;;;5.15;1.48;;;;;;;;;;5029347;28;20510;-73
2022/06/14 10:32:09;;;;;;;6.32;1.40;;;;;;;;;;5024392;28;20042;-74
2022/06/14 10:34:36;;;;;;;4.60;1.48;;;;;;;;;;5010567;28;20471;-75
2022/06/14 10:37:22;;;;;;;5.10;1.48;;;;;;;;;;5021697;28;20628;-74
2022/06/14 10:39:48;;;;;;;4.80;1.42;;;;;;;;;;5029524;28;20033;-73
2022/06/14 10:42:41;;;;;;;2.88;1.23;;;;;;;;;;5029140;28;20037;-76
2022/06/14 10:45:30;;;;;;;7.15;1.95;;;;;;;;;;5028006;28;20073;-76
2022/06/14 10:48:09;;;;;;;6.28;1.45;;;;;;;;;;5023948;28;20090;-75
2022/06/14 10:50:41;;;;;;;18.00;2.40;;;;;;;;;;5029467;28;20148;-74
2022/06/14 10:53:30;;;;;;;14.55;2.40;;;;;;;;;;5029375;28;20526;-75
2022/06/14 10:56:03;;;;;;;10.38;2.13;;;;;;;;;;5010703;28;20037;-75
2022/06/14 10:58:35;;;;;;;7.88;1.90;;;;;;;;;;5028646;28;20342;-72
2022/06/14 11:01:04;;;;;;;7.55;1.83;;;;;;;;;;5027429;28;20029;-75
2022/06/14 11:03:35;;;;;;;9.48;1.85;;;;;;;;;;5029046;28;20017;-74
2022/06/14 11:06:10;;;;;;;6.38;1.83;;;;;;;;;;5027290;28;20033;-76
2022/06/14 11:08:39;;;;;;;4.43;1.83;;;;;;;;;;5026461;28;20566;-76
2022/06/14 11:11:24;;;;;;;9.23;2.15;;;;;;;;;;5027394;28;20041;-74
2022/06/14 11:14:09;;;;;;;4.72;1.70;;;;;;;;;;5027114;28;20511;-74
2022/06/14 11:16:39;;;;;;;5.30;1.75;;;;;;;;;;5009246;28;20033;-76
2022/06/14 11:19:05;;;;;;;7.68;2.13;;;;;;;;;;5009371;28;20057;-74
2022/06/14 11:21:34;;;;;;;7.15;1.50;;;;;;;;;;5008858;28;20636;-73
2022/06/14 11:24:15;;;;;;;9.13;1.40;;;;;;;;;;5009955;28;20058;-72
2022/06/14 11:26:47;;;;;;;4.05;1.73;;;;;;;;;;5029068;28;20033;-76
2022/06/14 11:29:25;;;;;;;10.90;1.85;;;;;;;;;;5029001;28;20052;-73
2022/06/14 11:32:10;;;;;;;7.28;1.55;;;;;;;;;;5031362;28;20033;-76
2022/06/14 11:34:58;;;;;;;6.00;1.55;;;;;;;;;;5018711;28;20033;-74
2022/06/14 11:37:42;;;;;;;3.65;1.25;;;;;;;;;;5032197;28;20025;-74
2022/06/14 11:40:17;;;;;;;17.55;2.20;;;;;;;;;;5031279;28;20052;-74
2022/06/14 11:42:49;;;;;;;7.70;1.58;;;;;;;;;;5031177;28;20037;-75
2022/06/14 11:45:30;;;;;;;4.28;1.40;;;;;;;;;;5031832;28;20036;-73
2022/06/14 11:48:13;;;;;;;3.50;1.30;;;;;;;;;;5032303;28;20051;-74
2022/06/14 11:50:53;;;;;;;3.53;1.58;;;;;;;;;;5031033;28;20022;-74
2022/06/14 11:53:38;;;;;;;3.92;1.42;;;;;;;;;;5030555;28;20053;-73
2022/06/14 11:56:08;;;;;;;3.38;1.40;;;;;;;;;;5025520;28;20041;-74
2022/06/14 11:58:37;;;;;;;3.80;1.63;;;;;;;;;;5030075;28;20124;-74
2022/06/14 12:01:07;;;;;;;6.30;1.50;;;;;;;;;;5031830;28;20518;-73
2022/06/14 12:03:32;;;;;;;4.20;1.45;;;;;;;;;;5030394;28;20034;-73
2022/06/14 12:06:11;;;;;;;7.40;1.60;;;;;;;;;;5029112;28;20457;-74
2022/06/14 12:08:52;;;;;;;7.25;1.52;;;;;;;;;;5031648;28;20113;-77
2022/06/14 12:11:27;;;;;;;7.32;1.80;;;;;;;;;;5031209;28;20113;-75
2022/06/14 12:14:11;;;;;;;4.30;1.38;;;;;;;;;;5031653;28;20030;-77
2022/06/14 12:16:42;;;;;;;11.40;1.60;;;;;;;;;;5030484;28;20038;-76
2022/06/14 12:19:09;;;;;;;12.07;1.90;;;;;;;;;;5031507;28;20478;-75
2022/06/14 12:21:42;;;;;;;5.45;1.95;;;;;;;;;;5031672;28;20120;-76
2022/06/14 12:24:10;;;;;;;3.50;1.55;;;;;;;;;;5031907;28;20033;-75
2022/06/14 12:26:58;;;;;;;7.57;1.77;;;;;;;;;;5031397;28;20497;-74
2022/06/14 12:29:27;;;;;;;8.20;1.60;;;;;;;;;;5030077;28;20033;-73
2022/06/14 12:31:53;;;;;;;5.10;1.98;;;;;;;;;;5030369;28;20075;-75
2022/06/14 12:34:32;;;;;;;8.68;1.67;;;;;;;;;;5030205;28;20025;-74
2022/06/14 12:37:06;;;;;;;3.50;1.52;;;;;;;;;;5031486;28;20390;-74
2022/06/14 12:39:35;;;;;;;4.57;1.63;;;;;;;;;;5031528;28;20026;-74
2022/06/14 12:42:11;;;;;;;10.50;2.53;;;;;;;;;;5030081;28;20025;-73
2022/06/14 12:44:46;;;;;;;6.70;1.70;;;;;;;;;;5029831;28;20049;-72
2022/06/14 12:47:19;;;;;;;5.32;1.70;;;;;;;;;;5032077;28;20511;-75
2022/06/14 12:49:48;;;;;;;4.15;1.65;;;;;;;;;;5031566;28;20096;-73
2022/06/14 12:52:19;;;;;;;5.35;1.58;;;;;;;;;;5031737;28;20499;-74
2022/06/14 12:54:56;;;;;;;5.15;1.85;;;;;;;;;;5030779;28;20033;-74
2022/06/14 12:57:34;;;;;;;4.70;1.60;;;;;;;;;;5010201;28;20030;-74
2022/06/14 13:00:20;;;;;;;6.03;1.65;;;;;;;;;;5010366;28;20033;-74
2022/06/14 13:02:54;;;;;;;3.22;1.63;;;;;;;;;;5025192;28;20040;-75
2022/06/14 13:05:39;;;;;;;3.80;1.70;;;;;;;;;;5044342;28;20487;-74
2022/06/14 13:08:08;;;;;;;5.32;1.60;;;;;;;;;;5010220;28;20112;-76
2022/06/14 13:10:40;;;;;;;7.18;1.92;;;;;;;;;;5021973;28;20043;-75
2022/06/14 13:13:09;;;;;;;3.33;1.42;;;;;;;;;;5010821;28;20092;-75
2022/06/14 13:15:50;;;;;;;4.47;1.55;;;;;;;;;;5030858;28;20039;-74
2022/06/14 13:18:22;;;;;;;5.85;1.80;;;;;;;;;;5031748;28;20037;-74
2022/06/14 13:20:54;;;;;;;8.57;1.90;;;;;;;;;;5022131;28;20515;-74
2022/06/14 13:23:29;;;;;;;13.85;1.95;;;;;;;;;;5018628;28;20034;-74
2022/06/14 13:25:57;;;;;;;8.10;1.80;;;;;;;;;;5026239;28;20491;-74
2022/06/14 13:28:59;;;;;;;6.07;1.83;;;;;;;;;;5029541;28;20050;-77
2022/06/14 13:31:30;;;;;;;4.60;1.40;;;;;;;;;;4944117;29;20098;-73
2022/06/14 13:34:02;;;;;;;6.75;1.75;;;;;;;;;;5008520;28;20124;-75
2022/06/14 13:36:47;;;;;;;10.07;1.88;;;;;;;;;;5028120;28;20045;-75
2022/06/14 13:39:23;;;;;;;5.50;1.60;;;;;;;;;;5037344;28;20037;-74
2022/06/14 13:42:02;;;;;;;6.60;1.85;;;;;;;;;;5027833;28;20479;-74
2022/06/14 13:44:49;;;;;;;18.45;2.55;;;;;;;;;;5026282;28;20108;-74
2022/06/14 13:47:22;;;;;;;13.23;2.60;;;;;;;;;;5027421;28;20099;-75
2022/06/14 13:50:01;;;;;;;5.50;1.83;;;;;;;;;;5031844;28;20029;-73
2022/06/14 13:55:31;;;;;;;5.50;1.95;;;;;;;;;;5027820;28;20091;-76
2022/06/14 13:58:06;;;;;;;10.45;2.60;;;;;;;;;;5026251;28;20463;-74
2022/06/14 14:00:47;;;;;;;5.65;1.90;;;;;;;;;;5025745;28;20026;-77
2022/06/14 14:03:23;;;;;;;3.95;1.85;;;;;;;;;;5024076;28;20108;-73
2022/06/14 14:05:59;;;;;;;6.15;1.95;;;;;;;;;;5019090;28;20037;-73
2022/06/14 14:08:31;;;;;;;4.72;2.08;;;;;;;;;;5029710;28;20175;-76
2022/06/14 14:11:06;;;;;;;5.80;1.90;;;;;;;;;;5029087;28;20044;-74
2022/06/14 14:13:37;;;;;;;5.50;1.92;;;;;;;;;;5026343;28;20104;-74
2022/06/14 14:16:22;;;;;;;11.85;4.32;;;;;;;;;;5044936;28;20517;-74
2022/06/14 14:18:57;;;;;;;10.10;3.90;;;;;;;;;;5033807;28;20033;-74
2022/06/14 14:21:39;;;;;;;5.85;1.65;;;;;;;;;;5027822;28;20080;-73
2022/06/14 14:24:23;;;;;;;4.40;1.77;;;;;;;;;;5023622;28;20045;-73
2022/06/14 14:27:04;;;;;;;3.20;1.48;;;;;;;;;;5023603;28;20038;-73
2022/06/14 14:29:38;;;;;;;6.97;2.22;;;;;;;;;;5019636;28;20018;-74
2022/06/14 14:32:18;;;;;;;5.93;2.03;;;;;;;;;;5027835;28;20087;-74
2022/06/14 14:34:44;;;;;;;6.22;2.30;;;;;;;;;;5031890;28;20122;-75
2022/06/14 14:37:16;;;;;;;4.75;1.70;;;;;;;;;;5019768;28;20036;-74
2022/06/14 14:39:51;;;;;;;7.50;1.85;;;;;;;;;;5023520;28;20064;-73
2022/06/14 14:42:26;;;;;;;5.70;1.67;;;;;;;;;;5033791;28;20021;-72
2022/06/14 14:44:54;;;;;;;6.50;2.00;;;;;;;;;;5034954;28;20033;-74
2022/06/14 14:47:34;;;;;;;5.35;1.90;;;;;;;;;;5032399;28;20514;-74
2022/06/14 14:50:21;;;;;;;11.25;2.08;;;;;;;;;;5032072;28;20080;-73
2022/06/14 14:52:53;;;;;;;8.75;1.50;;;;;;;;;;5031193;28;20053;-74
2022/06/14 14:55:25;;;;;;;8.88;2.00;;;;;;;;;;5027618;28;20033;-74
2022/06/14 14:58:17;;;;;;;11.52;1.65;;;;;;;;;;5028164;28;20092;-73
2022/06/14 15:06:22;;;;;;;6.65;2.08;;;;;;;;;;5029109;28;20060;-75
2022/06/14 15:08:55;;;;;;;4.07;1.45;;;;;;;;;;5030193;28;20033;-73
2022/06/14 15:11:24;;;;;;;4.28;1.50;;;;;;;;;;5025328;28;20025;-73
2022/06/14 15:13:58;;;;;;;5.68;1.70;;;;;;;;;;5026563;28;20112;-72
2022/06/14 15:16:32;;;;;;;7.25;1.90;;;;;;;;;;5044798;28;20041;-72
2022/06/14 15:21:53;;;;;;;5.07;1.70;;;;;;;;;;5033887;28;20129;-73
2022/06/14 15:24:33;;;;;;;5.40;1.90;;;;;;;;;;5024935;28;20143;-73
2022/06/14 15:27:01;;;;;;;7.47;1.80;;;;;;;;;;5025800;28;20536;-73
2022/06/14 15:29:36;;;;;;;3.88;1.77;;;;;;;;;;5022984;28;20029;-75
2022/06/14 15:32:15;;;;;;;7.20;2.10;;;;;;;;;;5026771;28;20026;-74
2022/06/14 15:34:45;;;;;;;7.68;2.45;;;;;;;;;;5023296;28;20390;-73
2022/06/14 15:37:15;;;;;;;4.90;1.60;;;;;;;;;;5030571;28;20506;-73
2022/06/14 15:39:47;;;;;;;3.45;1.67;;;;;;;;;;5026799;28;20029;-72
2022/06/14 15:42:51;;;;;;;4.22;2.00;;;;;;;;;;5021906;28;20116;-72
2022/06/14 15:45:28;;;;;;;4.28;1.67;;;;;;;;;;4977185;28;20034;-74